createdAt,value
2023-03-06T12:20:32.388Z,9.26
2023-03-06T12:23:14.909Z,9.63
2023-03-06T12:25:42.933Z,9.95
2023-03-06T12:28:18.011Z,10.22
2023-03-06T12:31:06.518Z,9.81
2023-03-06T12:33:36.158Z,9.89
2023-03-06T12:36:13.224Z,9.66
2023-03-06T12:38:58.022Z,10.40
2023-03-06T12:41:31.672Z,10.92
2023-03-06T12:44:16.994Z,10.96
2023-03-06T12:46:44.938Z,11.31
2023-03-06T12:49:23.093Z,11.56
2023-03-06T12:51:59.156Z,11.83
2023-03-06T12:54:28.834Z,10.82
2023-03-06T12:56:56.374Z,11.60
2023-03-06T12:59:40.300Z,11.82
2023-03-06T13:02:58.097Z,11.36
2023-03-06T13:05:47.750Z,11.40
2023-03-06T13:08:27.604Z,11.13
2023-03-06T13:11:11.474Z,12.19
2023-03-06T13:13:42.263Z,13.01
2023-03-06T13:16:13.881Z,13.04
2023-03-06T13:18:52.459Z,13.01
2023-03-06T13:21:44.644Z,13.39
2023-03-06T13:24:18.025Z,13.62
2023-03-06T13:26:50.089Z,14.22
2023-03-06T13:29:46.244Z,14.14
2023-03-06T13:32:16.723Z,13.67
2023-03-06T13:34:44.081Z,14.07
2023-03-06T13:37:47.858Z,14.26
2023-03-06T13:40:29.069Z,15.17
2023-03-06T13:43:21.248Z,15.26
2023-03-06T13:45:48.599Z,16.14
2023-03-06T13:48:43.502Z,15.86
2023-03-06T13:51:22.144Z,16.27
2023-03-06T13:54:18.436Z,17.55
2023-03-06T13:57:13.807Z,17.76
2023-03-06T14:00:10.164Z,18.46
2023-03-06T14:02:50.691Z,18.52
2023-03-06T14:05:18.222Z,19.08
2023-03-06T14:07:45.716Z,18.28
2023-03-06T14:10:20.646Z,18.12
2023-03-06T14:13:01.657Z,19.26
2023-03-06T14:15:31.857Z,19.30
2023-03-06T14:18:01.083Z,19.40
2023-03-06T14:20:33.525Z,19.58
2023-03-06T14:23:30.710Z,19.88
2023-03-06T14:26:01.056Z,20.12
2023-03-06T14:28:30.186Z,20.41
2023-03-06T14:30:58.098Z,20.24
2023-03-06T14:33:31.329Z,19.56
2023-03-06T14:36:00.728Z,20.29
2023-03-06T14:38:28.501Z,19.39
2023-03-06T14:40:55.851Z,18.78
2023-03-06T14:43:24.106Z,20.78
2023-03-06T14:45:56.663Z,20.75
2023-03-06T14:48:24.976Z,21.19
2023-03-06T14:50:53.759Z,21.56
2023-03-06T14:53:23.633Z,19.89
2023-03-06T14:55:51.804Z,21.06
2023-03-06T14:58:20.352Z,23.01
2023-03-06T15:00:49.508Z,26.32
2023-03-06T15:03:19.391Z,27.47
2023-03-06T15:05:46.644Z,30.70
2023-03-06T15:08:14.443Z,30.88
2023-03-06T15:10:41.649Z,32.96
2023-03-06T15:13:09.838Z,32.48
2023-03-06T15:15:37.093Z,27.14
2023-03-06T15:18:30.585Z,24.79
2023-03-06T15:21:07.038Z,27.05
2023-03-06T15:23:38.393Z,23.02
2023-03-06T15:26:19.853Z,21.79
2023-03-06T15:28:59.824Z,24.17
2023-03-06T15:31:34.807Z,29.17
2023-03-06T15:34:18.910Z,29.99
2023-03-06T15:36:46.477Z,29.25
2023-03-06T15:39:27.516Z,29.99
2023-03-06T15:41:56.965Z,29.71
2023-03-06T15:44:24.298Z,29.05
2023-03-06T15:46:53.899Z,28.46
2023-03-06T15:49:28.168Z,25.03
2023-03-06T15:51:55.491Z,21.06
2023-03-06T15:54:22.745Z,19.52
2023-03-06T15:56:50.040Z,19.30
2023-03-06T15:59:20.970Z,18.54
2023-03-06T16:01:48.306Z,17.83
2023-03-06T16:04:15.628Z,17.48
2023-03-06T16:06:44.453Z,17.06
2023-03-06T16:09:11.776Z,16.23
2023-03-06T16:11:44.040Z,16.59
2023-03-06T16:14:17.757Z,16.41
2023-03-06T16:16:45.136Z,16.27
2023-03-06T16:19:25.306Z,15.80
2023-03-06T16:21:55.717Z,16.57
2023-03-06T16:24:23.107Z,16.29
2023-03-06T16:26:50.995Z,14.61
2023-03-06T16:29:18.310Z,13.73
2023-03-06T16:31:45.618Z,12.12
2023-03-06T16:34:12.857Z,13.79
2023-03-06T16:36:40.150Z,11.97
2023-03-06T16:39:10.786Z,12.02
2023-03-06T16:41:38.059Z,11.35
2023-03-06T16:44:05.523Z,11.95
2023-03-06T16:46:32.868Z,10.92
2023-03-06T16:49:00.147Z,10.51
2023-03-06T16:51:27.549Z,10.53
2023-03-06T16:53:54.800Z,10.06
2023-03-06T16:56:23.581Z,10.06
2023-03-06T16:58:50.866Z,9.96
2023-03-06T17:01:18.641Z,10.27
2023-03-06T17:03:45.902Z,9.95
2023-03-06T17:06:14.170Z,10.21
2023-03-06T17:08:41.436Z,9.60
2023-03-06T17:11:08.685Z,9.29
2023-03-06T17:13:37.386Z,8.70
2023-03-06T17:16:04.977Z,8.49
2023-03-06T17:18:33.651Z,8.41
2023-03-06T17:21:01.773Z,8.72
2023-03-06T17:23:32.003Z,8.48
2023-03-06T17:26:06.621Z,8.11
2023-03-06T17:28:33.986Z,8.74
2023-03-06T17:31:02.982Z,8.50
2023-03-06T17:33:30.294Z,7.77
2023-03-06T17:36:00.651Z,7.93
2023-03-06T17:38:27.795Z,7.72
2023-03-06T17:40:54.941Z,7.59
2023-03-06T17:43:22.211Z,7.95
2023-03-06T17:45:49.454Z,8.13
2023-03-06T17:48:18.161Z,8.33
2023-03-06T17:50:53.057Z,8.24
2023-03-06T17:53:20.530Z,8.54
2023-03-06T17:55:47.769Z,8.27
2023-03-06T17:58:14.988Z,8.25
2023-03-06T18:00:42.214Z,8.23
2023-03-06T18:03:09.461Z,8.41
2023-03-06T18:05:38.222Z,8.80
2023-03-06T18:08:05.663Z,8.63
2023-03-06T18:10:32.949Z,8.61
2023-03-06T18:13:00.130Z,8.25
2023-03-06T18:15:27.671Z,8.68
2023-03-06T18:17:55.179Z,8.21
2023-03-06T18:20:22.426Z,7.49
2023-03-06T18:22:51.166Z,7.78
2023-03-06T18:25:18.565Z,8.35
2023-03-06T18:27:45.803Z,8.69
2023-03-06T18:30:13.909Z,8.17
2023-03-06T18:32:41.309Z,8.18
2023-03-06T18:35:09.319Z,7.90
2023-03-06T18:37:36.534Z,7.90
2023-03-06T18:40:06.382Z,8.37
2023-03-06T18:42:33.648Z,8.11
2023-03-06T18:45:00.982Z,7.36
2023-03-06T18:47:28.258Z,7.15
2023-03-06T18:49:55.490Z,7.56
2023-03-06T18:52:22.629Z,6.89
2023-03-06T18:54:49.923Z,6.96
2023-03-06T18:57:18.569Z,7.22
2023-03-06T18:59:45.853Z,7.60
2023-03-06T19:02:13.149Z,7.43
2023-03-06T19:15:23.182Z,7.65
2023-03-06T19:17:50.428Z,7.10
2023-03-06T19:20:17.881Z,6.51
2023-03-06T19:22:47.925Z,6.55
2023-03-06T19:44:10.008Z,5.73
2023-03-06T19:46:37.260Z,5.57
2023-03-06T19:49:04.753Z,5.58
2023-03-06T19:51:31.945Z,5.59
2023-03-06T19:53:59.169Z,5.77
2023-03-06T19:56:27.026Z,5.69
2023-03-06T19:58:54.142Z,5.77
2023-03-06T20:01:23.576Z,5.93
2023-03-06T20:03:52.363Z,5.80
2023-03-06T20:06:20.028Z,5.95
2023-03-06T20:08:47.592Z,5.69
2023-03-06T20:11:18.739Z,6.01
2023-03-06T20:13:47.306Z,6.08
2023-03-06T20:16:14.876Z,6.75
2023-03-06T20:18:43.778Z,6.24
2023-03-06T20:21:10.953Z,6.54
2023-03-06T20:23:38.221Z,6.69
2023-03-06T20:26:05.981Z,6.44
2023-03-06T20:28:33.147Z,6.28
2023-03-06T20:31:06.361Z,6.65
2023-03-06T20:33:33.546Z,6.96
2023-03-06T20:36:02.296Z,6.88
2023-03-06T20:38:29.456Z,6.66
2023-03-06T20:40:56.680Z,6.54
2023-03-06T20:43:23.853Z,6.38
2023-03-06T20:45:58.339Z,6.38
2023-03-06T20:48:25.570Z,6.14
2023-03-06T20:51:03.771Z,6.39
2023-03-06T20:53:30.934Z,5.82
2023-03-06T20:55:58.232Z,5.71
